Fall River Mills, California
Current Conditions -  °F | °C
As of 1:56 AM on Saturday 25 Oct 2014 (Local Time) from KMHS Reporting Station
Overcast Overcast  
Wind Chill: 52°   Ceiling: 4300
Heat Index: 52°   Visibility: 10mi
Dew Point: 45°   Wind: 0mph
Humidity: 77%   Direction: NA
Pressure: 29.81"   Gusts: NA
Location:  41°N, 121.44°W
Report Text: KMHS 250856Z AUTO 00000KT 10SM FEW022 BKN043 OVC055 11/07 A2981 RMK AO2 SLP096 T01110072 58015
Loading
Personal Weather Stations






























Interactive Weather Map
Tropical Storm Tracking
New forecast layout! Learn more

10-Day Weather Forecast

Advertisements
Track Severe Weather on mobile